Time;durP1;ratioP1;P1;durP2;ratioP2;P2;SDS_P1;SDS_P2;PMS_P1;PMS_P2;Temp;Humidity;BMP_temperature;BMP_pressure;BME280_temperature;BME280_humidity;BME280_pressure;Samples;Min_cycle;Max_cycle;Signal;HPM_P1;HPM_P2
2022/03/13 00:01:27;;;;;;;8.20;5.85;;;;;;;-4.14;64.18;95939.53;4970391;28;20562;-80
2022/03/13 00:03:55;;;;;;;10.32;6.80;;;;;;;-4.20;64.58;95945.56;5016757;28;20221;-80
2022/03/13 00:06:34;;;;;;;12.45;6.85;;;;;;;-4.19;64.43;95941.28;5034518;28;20219;-83
2022/03/13 00:09:05;;;;;;;9.98;6.63;;;;;;;-4.25;64.84;95931.13;5034447;28;20326;-80
2022/03/13 00:11:34;;;;;;;9.07;6.35;;;;;;;-4.12;65.07;95938.63;5034274;28;20546;-79
2022/03/13 00:14:04;;;;;;;9.23;7.18;;;;;;;-4.09;64.99;95948.84;5034506;28;20184;-80
2022/03/13 00:16:31;;;;;;;9.10;6.40;;;;;;;-4.03;65.27;95939.41;5016275;28;20207;-80
2022/03/13 00:18:59;;;;;;;7.97;6.80;;;;;;;-3.97;65.12;95942.75;5033844;28;20200;-80
2022/03/13 00:21:26;;;;;;;10.15;6.28;;;;;;;-3.90;64.82;95941.81;5034452;28;20529;-80
2022/03/13 00:23:53;;;;;;;12.35;6.38;;;;;;;-3.90;63.93;95935.84;5033402;28;20565;-80
2022/03/13 00:26:20;;;;;;;9.95;5.25;;;;;;;-3.93;63.83;95931.59;5033753;28;20208;-79
2022/03/13 00:28:48;;;;;;;7.20;5.20;;;;;;;-3.85;63.21;95950.28;5033783;28;20204;-79
2022/03/13 00:31:15;;;;;;;8.32;6.40;;;;;;;-3.88;63.08;95942.63;5033386;28;20205;-80
2022/03/13 00:33:42;;;;;;;10.57;6.57;;;;;;;-3.88;63.09;95942.63;5033960;28;20188;-79
2022/03/13 00:36:09;;;;;;;8.73;5.45;;;;;;;-3.89;63.41;95933.25;5033821;28;20530;-79
2022/03/13 00:38:36;;;;;;;10.55;6.57;;;;;;;-3.79;63.64;95939.09;5033890;28;20698;-79
2022/03/13 00:41:03;;;;;;;11.52;5.85;;;;;;;-3.79;63.31;95937.38;5033825;28;20201;-79
2022/03/13 00:43:30;;;;;;;10.43;5.68;;;;;;;-3.78;63.54;95935.66;5033451;28;20215;-79
2022/03/13 00:45:58;;;;;;;9.27;6.57;;;;;;;-3.76;63.30;95932.25;5033492;28;20628;-79
2022/03/13 00:48:27;;;;;;;9.73;6.30;;;;;;;-3.84;62.91;95940.88;5033490;28;20689;-80
2022/03/13 00:50:54;;;;;;;7.45;6.32;;;;;;;-3.91;63.68;95934.97;5033364;28;20527;-80
2022/03/13 00:53:21;;;;;;;8.70;6.45;;;;;;;-3.91;63.40;95931.56;5033320;28;20291;-80
2022/03/13 00:55:48;;;;;;;11.43;7.00;;;;;;;-3.98;63.63;95922.28;5033616;28;20188;-80
2022/03/13 01:01:47;;;;;;;6.43;5.75;;;;;;;-3.96;63.91;95923.94;5033394;28;20207;-79
2022/03/13 01:04:14;;;;;;;6.40;5.35;;;;;;;-3.95;64.00;95927.34;5033641;28;20219;-80
2022/03/13 01:06:41;;;;;;;11.00;6.30;;;;;;;-3.98;64.71;95920.56;5033452;28;20195;-80
2022/03/13 01:09:08;;;;;;;6.82;5.35;;;;;;;-4.10;64.59;95910.44;5033761;28;20231;-79
2022/03/13 01:11:35;;;;;;;9.90;6.10;;;;;;;-4.09;64.55;95912.13;5033452;28;20663;-79
2022/03/13 01:14:02;;;;;;;7.53;6.22;;;;;;;-4.04;64.49;95910.38;5015046;28;20662;-80
2022/03/13 01:16:35;;;;;;;11.60;6.35;;;;;;;-4.12;64.78;95900.19;5033117;28;20291;-79
2022/03/13 01:19:04;;;;;;;14.43;7.07;;;;;;;-4.11;64.74;95909.56;5033091;28;20200;-80
2022/03/13 01:21:34;;;;;;;8.45;6.53;;;;;;;-4.15;64.83;95895.09;5033416;28;20206;-79
2022/03/13 01:24:20;;;;;;;6.95;5.55;;;;;;;-4.20;65.16;95896.03;5032944;28;20758;-80
2022/03/13 01:26:53;;;;;;;9.93;6.82;;;;;;;-4.25;65.12;95896.09;5033279;28;20201;-79
2022/03/13 01:29:20;;;;;;;8.80;5.65;;;;;;;-4.29;65.20;95898.72;5032945;28;20204;-81
2022/03/13 01:31:49;;;;;;;9.68;7.10;;;;;;;-4.34;65.31;95895.31;5033275;28;20188;-79
2022/03/13 01:34:41;;;;;;;13.02;6.65;;;;;;;-4.32;65.34;95891.91;5033326;28;20199;-79
2022/03/13 01:37:12;;;;;;;9.13;5.78;;;;;;;-4.29;65.38;95883.34;5033304;28;20254;-78
2022/03/13 01:39:39;;;;;;;6.50;4.68;;;;;;;-4.28;65.41;95883.31;5033274;28;20189;-80
2022/03/13 01:42:07;;;;;;;8.80;6.15;;;;;;;-4.26;65.33;95879.03;5033167;28;20567;-82
2022/03/13 01:44:34;;;;;;;7.28;6.28;;;;;;;-4.21;65.04;95876.41;5033151;28;20209;-80
2022/03/13 01:47:01;;;;;;;8.60;5.80;;;;;;;-4.16;65.07;95875.47;5033127;28;20195;-80
2022/03/13 01:49:30;;;;;;;13.63;6.13;;;;;;;-4.09;64.88;95877.09;5033236;28;20200;-80
2022/03/13 01:51:58;;;;;;;10.93;7.93;;;;;;;-4.04;64.65;95878.78;5033036;28;20194;-80
2022/03/13 01:54:25;;;;;;;10.25;5.85;;;;;;;-4.06;64.98;95871.94;5032719;28;20255;-81
2022/03/13 01:56:52;;;;;;;11.15;7.28;;;;;;;-4.03;65.08;95867.66;5032848;28;20218;-81
2022/03/13 01:59:21;;;;;;;11.75;6.90;;;;;;;-3.98;64.40;95883.81;5033217;28;20185;-80
2022/03/13 02:01:48;;;;;;;8.88;6.70;;;;;;;-3.94;64.21;95886.31;5034079;28;20204;-80
2022/03/13 02:04:23;;;;;;;12.88;6.75;;;;;;;-3.87;64.02;95899.91;5036639;28;20228;-81
2022/03/13 02:06:52;;;;;;;11.45;6.55;;;;;;;-3.86;63.81;95901.59;5036167;28;20203;-80
2022/03/13 02:09:19;;;;;;;11.55;7.60;;;;;;;-3.97;63.83;95886.38;5035563;28;20243;-81
2022/03/13 02:11:47;;;;;;;9.02;6.15;;;;;;;-3.88;63.52;95898.22;5035836;28;20609;-81
2022/03/13 02:14:17;;;;;;;9.85;6.70;;;;;;;-3.85;63.65;95900.72;5035793;28;20749;-81
2022/03/13 02:16:44;;;;;;;9.10;6.30;;;;;;;-3.84;64.04;95895.56;5036155;28;20200;-80
2022/03/13 02:19:11;;;;;;;13.18;8.98;;;;;;;-3.94;63.84;95895.72;5035612;28;20231;-81
2022/03/13 02:21:43;;;;;;;12.07;8.25;;;;;;;-3.94;64.52;95895.72;5036083;28;20206;-81
2022/03/13 02:24:14;;;;;;;12.75;8.40;;;;;;;-3.98;64.88;95892.34;5018216;28;20231;-81
2022/03/13 02:26:43;;;;;;;12.68;8.60;;;;;;;-3.99;65.32;95893.22;5036159;28;20674;-81
2022/03/13 02:29:13;;;;;;;16.65;7.75;;;;;;;-4.07;65.69;95889.88;5035503;28;20267;-81
2022/03/13 02:31:40;;;;;;;8.05;6.28;;;;;;;-4.03;64.77;95895.84;5036034;28;20203;-81
2022/03/13 02:34:11;;;;;;;7.80;6.70;;;;;;;-3.99;64.66;95893.22;5036201;28;20256;-81
2022/03/13 02:37:17;;;;;;;12.30;6.85;;;;;;;-3.93;nan;95902.53;5036247;28;20184;-81
2022/03/13 02:39:45;;;;;;;9.05;6.05;;;;;;;-3.92;63.99;95899.97;4994235;28;20313;-81
2022/03/13 02:42:12;;;;;;;12.38;6.93;;;;;;;-3.93;63.76;95898.28;4994332;28;20221;-81
2022/03/13 02:44:39;;;;;;;7.00;5.93;;;;;;;-3.93;63.51;95894.84;4994140;28;20231;-81
2022/03/13 02:47:07;;;;;;;14.65;7.55;;;;;;;-4.05;64.39;95895.84;4994371;28;20212;-81
2022/03/13 02:49:35;;;;;;;10.93;7.22;;;;;;;-4.06;64.77;95895.00;4994146;28;20190;-81
2022/03/13 02:52:05;;;;;;;9.38;7.20;;;;;;;-4.08;64.85;95901.00;4994186;28;20195;-81
2022/03/13 02:54:32;;;;;;;11.07;7.45;;;;;;;-4.17;64.80;95898.56;4994564;28;20684;-81
2022/03/13 02:57:02;;;;;;;9.88;6.32;;;;;;;-4.17;65.04;95896.00;4994153;28;20195;-81
2022/03/13 03:02:09;;;;;;;9.40;6.82;;;;;;;-4.28;65.12;95896.13;4935857;29;20283;-81
2022/03/13 03:04:36;;;;;;;10.98;6.40;;;;;;;-4.33;64.95;95891.94;4935625;29;20231;-81
2022/03/13 03:07:05;;;;;;;11.80;7.03;;;;;;;-4.36;65.42;95883.38;4935912;29;20207;-80
2022/03/13 03:09:35;;;;;;;5.95;5.38;;;;;;;-4.44;65.63;95885.19;4935895;29;20286;-81
2022/03/13 03:12:05;;;;;;;5.63;5.07;;;;;;;-4.45;65.75;95886.06;4936358;29;20232;-80
2022/03/13 03:14:32;;;;;;;8.23;5.40;;;;;;;-4.60;65.70;95882.81;4919960;28;20206;-81
2022/03/13 03:23:42;;;;;;;11.60;7.07;;;;;;;-4.87;66.34;95877.13;4973203;28;20224;-81
2022/03/13 03:26:09;;;;;;;9.77;5.95;;;;;;;-4.86;66.68;95878.81;4974216;28;20209;-82
2022/03/13 03:28:38;;;;;;;8.43;6.10;;;;;;;-4.89;67.08;95876.28;4973993;28;20196;-82
2022/03/13 03:31:04;;;;;;;11.82;6.95;;;;;;;-5.02;67.37;95864.44;4974143;28;20332;-82
2022/03/13 03:40:15;;;;;;;9.80;6.38;;;;;;;-5.04;67.09;95872.13;5023649;28;20191;-80
2022/03/13 03:42:42;;;;;;;7.88;5.55;;;;;;;-4.94;67.30;95866.94;5034581;28;20188;-82
2022/03/13 03:45:13;;;;;;;7.55;6.10;;;;;;;-4.93;66.88;95871.19;5034806;28;20322;-81
2022/03/13 03:47:40;;;;;;;6.20;5.60;;;;;;;-4.83;66.83;95871.09;5035078;28;20185;-82
2022/03/13 03:50:07;;;;;;;6.55;5.60;;;;;;;-4.78;67.24;95868.50;5034736;28;20231;-80
2022/03/13 03:52:34;;;;;;;9.70;5.68;;;;;;;-4.76;67.62;95871.88;5034728;28;20200;-80
2022/03/13 03:55:01;;;;;;;6.95;5.13;;;;;;;-4.74;67.55;95871.00;5034574;28;20197;-81
2022/03/13 03:57:28;;;;;;;9.98;6.18;;;;;;;-4.65;67.51;95870.03;5034481;28;20267;-80
2022/03/13 03:59:55;;;;;;;8.23;5.65;;;;;;;-4.60;67.41;95878.56;5034544;28;20562;-79
2022/03/13 04:02:23;;;;;;;8.77;5.43;;;;;;;-4.51;67.67;95873.31;5034384;28;20193;-79
2022/03/13 04:04:50;;;;;;;10.23;6.28;;;;;;;-4.45;67.14;95865.56;5016642;28;20227;-80
2022/03/13 04:07:18;;;;;;;8.88;5.93;;;;;;;-4.35;66.99;95858.63;5034153;28;20189;-81
2022/03/13 04:13:37;;;;;;;10.52;6.78;;;;;;;-4.26;66.17;95871.34;5033359;28;20266;-79
2022/03/13 04:16:05;;;;;;;9.27;6.85;;;;;;;-4.24;66.38;95858.50;5034216;28;20199;-80
2022/03/13 04:18:34;;;;;;;16.27;8.45;;;;;;;-4.17;66.39;95860.13;5015876;28;20240;-80
2022/03/13 04:21:03;;;;;;;12.07;7.85;;;;;;;-4.17;67.13;95863.53;5033987;28;20195;-80
2022/03/13 04:23:31;;;;;;;15.07;9.48;;;;;;;-4.06;67.67;95860.81;5033759;28;20252;-81
2022/03/13 04:25:58;;;;;;;13.00;9.77;;;;;;;-4.01;67.31;95861.66;5033207;28;20673;-79
2022/03/13 04:28:25;;;;;;;13.05;10.15;;;;;;;-3.95;67.04;95860.72;5015383;28;20210;-81
2022/03/13 04:30:57;;;;;;;10.93;7.07;;;;;;;-3.95;66.26;95859.00;5033146;28;20219;-80
2022/03/13 04:33:25;;;;;;;11.18;6.55;;;;;;;-3.93;65.66;95844.44;5033791;28;20254;-80
2022/03/13 04:35:55;;;;;;;11.25;7.20;;;;;;;-3.88;64.75;95854.63;5034021;28;20204;-80
2022/03/13 04:38:24;;;;;;;7.63;5.13;;;;;;;-3.89;64.12;95853.78;5033962;28;20200;-79
2022/03/13 04:40:54;;;;;;;8.70;5.78;;;;;;;-3.91;63.82;95854.66;5033915;28;20196;-80
2022/03/13 04:43:23;;;;;;;10.95;5.80;;;;;;;-3.97;63.79;95847.91;5034514;28;20190;-81
2022/03/13 04:45:51;;;;;;;11.32;6.82;;;;;;;-4.01;63.87;95850.53;5033296;28;20224;-82
2022/03/13 04:48:18;;;;;;;7.00;6.40;;;;;;;-4.00;63.95;95850.53;5032871;28;20205;-80
2022/03/13 04:50:46;;;;;;;7.05;6.30;;;;;;;-3.98;63.97;95859.03;5032465;28;20213;-82
2022/03/13 04:53:15;;;;;;;6.80;5.32;;;;;;;-4.03;63.93;95849.72;5032325;28;20200;-80
2022/03/13 04:55:42;;;;;;;8.90;6.65;;;;;;;-3.98;63.98;95850.50;5032066;28;20193;-80
2022/03/13 04:58:10;;;;;;;11.30;6.50;;;;;;;-3.95;63.69;95856.44;5032376;28;20749;-87
2022/03/13 05:00:37;;;;;;;11.68;6.85;;;;;;;-3.83;66.38;95860.53;5034017;28;20299;-86
2022/03/13 05:03:10;;;;;;;19.77;12.98;;;;;;;-4.07;67.51;95862.53;5033766;28;20204;-80
2022/03/13 05:05:36;;;;;;;22.17;13.98;;;;;;;-3.95;68.41;95863.28;4998767;28;20298;-80
2022/03/13 05:08:06;;;;;;;30.38;17.83;;;;;;;-4.20;70.85;95862.72;5032899;28;20444;-79
2022/03/13 05:10:37;;;;;;;43.67;24.80;;;;;;;-4.16;71.04;95867.78;4999212;28;20261;-80
2022/03/13 05:13:08;;;;;;;28.02;19.08;;;;;;;-4.09;71.20;95860.88;5033601;28;20195;-79
2022/03/13 05:15:36;;;;;;;22.90;15.43;;;;;;;-4.02;71.65;95870.19;5033753;28;20211;-80
2022/03/13 05:18:03;;;;;;;28.83;14.32;;;;;;;-4.05;72.21;95867.66;5033390;28;20198;-78
2022/03/13 05:20:35;;;;;;;28.95;18.90;;;;;;;-3.98;72.83;95866.72;5033453;28;20209;-77
2022/03/13 05:23:03;;;;;;;23.15;15.60;;;;;;;-3.95;73.14;95855.59;5033617;28;20597;-77
2022/03/13 05:25:32;;;;;;;28.55;17.95;;;;;;;-3.87;73.04;95859.72;4998977;28;20261;-79
2022/03/13 05:28:01;;;;;;;21.00;15.43;;;;;;;-3.88;72.51;95870.84;4999255;28;20207;-78
2022/03/13 05:33:50;;;;;;;14.77;8.80;;;;;;;-1.15;100.00;95857.25;5033148;28;20171;-80
2022/03/13 05:36:17;;;;;;;8.60;6.72;;;;;;;0.04;97.69;95864.47;5032658;28;20227;-79
2022/03/13 05:38:43;;;;;;;10.60;6.55;;;;;;;-0.60;75.84;95886.78;5036431;28;20571;-80
2022/03/13 05:41:11;;;;;;;6.97;6.32;;;;;;;-0.99;71.12;95879.16;5036502;28;20211;-78
2022/03/13 05:43:42;;;;;;;7.35;6.05;;;;;;;-1.12;70.78;95880.34;5036566;28;20210;-80
2022/03/13 05:46:10;;;;;;;9.68;6.30;;;;;;;-1.36;67.16;95889.47;5036661;28;20224;-80
2022/03/13 05:48:37;;;;;;;20.15;10.35;;;;;;;-1.60;64.75;95889.13;5014542;28;20278;-79
2022/03/13 05:51:03;;;;;;;21.52;12.13;;;;;;;-1.73;65.17;95886.88;5036601;28;20200;-80
2022/03/13 05:53:30;;;;;;;15.75;11.70;;;;;;;-1.78;65.30;95888.66;5036371;28;20195;-80
2022/03/13 05:55:57;;;;;;;22.75;11.93;;;;;;;-1.88;64.54;95886.28;5036410;28;20219;-80
2022/03/13 05:58:24;;;;;;;17.25;10.50;;;;;;;-1.88;64.83;95891.44;5036997;28;20211;-79
2022/03/13 06:01:03;;;;;;;22.52;13.07;;;;;;;-1.88;64.44;95895.72;5037587;28;20189;-77
2022/03/13 06:03:30;;;;;;;24.15;12.38;;;;;;;-1.96;64.01;95890.75;5037758;28;20797;-80
2022/03/13 06:05:57;;;;;;;22.40;12.35;;;;;;;-1.84;64.39;95896.50;5056767;28;20223;-81
2022/03/13 06:08:24;;;;;;;18.85;11.32;;;;;;;-1.74;63.69;95903.16;5057081;28;20231;-79
2022/03/13 06:10:51;;;;;;;23.60;12.63;;;;;;;-1.65;63.24;95898.69;5056772;28;20204;-77
2022/03/13 06:13:19;;;;;;;20.92;12.52;;;;;;;-1.55;63.09;95899.31;5056909;28;20640;-77
2022/03/13 06:15:46;;;;;;;17.85;12.40;;;;;;;-1.41;62.90;95902.47;5056661;28;20211;-77
2022/03/13 06:18:14;;;;;;;20.15;13.15;;;;;;;-1.35;61.78;95899.75;5056539;28;20261;-78
2022/03/13 06:20:41;;;;;;;18.45;11.57;;;;;;;-1.30;62.63;95900.47;5056114;28;20192;-78
2022/03/13 06:23:09;;;;;;;33.00;13.02;;;;;;;-1.13;62.89;95892.38;5056304;28;20187;-78
2022/03/13 06:25:36;;;;;;;32.83;17.20;;;;;;;-0.89;62.99;95905.53;5056163;28;20219;-78
2022/03/13 06:28:04;;;;;;;26.05;17.63;;;;;;;-0.80;62.06;95903.59;5056533;28;20225;-77
2022/03/13 06:30:31;;;;;;;25.17;14.93;;;;;;;-0.65;61.91;95898.06;5056272;28;20200;-77
2022/03/13 06:32:58;;;;;;;21.60;13.98;;;;;;;-0.43;62.46;95903.53;5056274;28;20198;-77
2022/03/13 06:35:26;;;;;;;28.10;16.95;;;;;;;-0.04;61.79;95898.19;5056337;28;20192;-77
2022/03/13 06:37:54;;;;;;;32.05;15.32;;;;;;;0.05;58.14;95902.25;5056351;28;20550;-77
2022/03/13 06:40:24;;;;;;;19.60;12.80;;;;;;;0.27;57.73;95905.91;5056309;28;20226;-77
2022/03/13 06:42:53;;;;;;;32.47;19.50;;;;;;;0.33;57.89;95905.75;5055652;28;20210;-78
2022/03/13 06:45:20;;;;;;;38.70;21.55;;;;;;;0.46;57.03;95901.06;5055926;28;20217;-77
2022/03/13 06:47:49;;;;;;;41.95;22.58;;;;;;;0.74;57.45;95899.38;5055044;28;20530;-78
2022/03/13 06:50:18;;;;;;;37.35;21.13;;;;;;;1.10;56.10;95901.69;5056041;28;20197;-78
2022/03/13 06:52:48;;;;;;;29.15;18.05;;;;;;;0.74;55.03;95901.94;5056048;28;20198;-77
2022/03/13 06:55:16;;;;;;;31.05;19.13;;;;;;;1.11;55.13;95901.66;5037146;28;20668;-77
2022/03/13 06:57:43;;;;;;;31.70;18.10;;;;;;;1.50;54.51;95906.44;5055927;28;20215;-78
2022/03/13 07:00:12;;;;;;;29.58;19.77;;;;;;;1.82;53.94;95903.63;5056143;28;20213;-78
2022/03/13 07:02:39;;;;;;;37.00;19.00;;;;;;;1.78;53.13;95898.59;5055077;28;20289;-78
2022/03/13 07:05:07;;;;;;;28.10;17.90;;;;;;;1.55;54.09;95889.03;5055662;28;20226;-78
2022/03/13 07:07:34;;;;;;;28.65;17.17;;;;;;;1.78;54.32;95891.69;5020759;28;20202;-78
2022/03/13 07:10:04;;;;;;;24.67;16.92;;;;;;;2.21;53.20;95879.78;5055377;28;20242;-78
2022/03/13 07:12:31;;;;;;;29.75;18.20;;;;;;;2.54;51.65;95876.84;5055457;28;20194;-78
2022/03/13 07:14:57;;;;;;;29.30;18.27;;;;;;;2.91;51.46;95882.34;5055316;28;20751;-78
2022/03/13 07:17:25;;;;;;;31.27;17.37;;;;;;;3.10;49.66;95880.69;5055150;28;20782;-79
2022/03/13 07:19:52;;;;;;;30.30;18.40;;;;;;;3.44;49.37;95881.91;5055437;28;20438;-78
2022/03/13 07:22:19;;;;;;;24.00;17.30;;;;;;;3.60;49.23;95875.22;5055122;28;20449;-77
2022/03/13 07:24:47;;;;;;;26.47;17.10;;;;;;;3.90;48.06;95877.41;5054855;28;20489;-77
2022/03/13 07:27:15;;;;;;;25.83;16.47;;;;;;;3.85;47.79;95868.97;5054952;28;20481;-77
2022/03/13 07:29:42;;;;;;;28.93;16.90;;;;;;;3.57;47.96;95877.09;5055783;28;20445;-77
2022/03/13 07:32:10;;;;;;;29.67;16.60;;;;;;;3.32;47.25;95885.03;5054797;28;20434;-78
2022/03/13 07:34:37;;;;;;;27.53;15.73;;;;;;;3.51;48.07;95882.53;5055266;28;20781;-78
2022/03/13 07:37:06;;;;;;;22.87;14.70;;;;;;;3.63;47.01;95882.88;5054636;28;20917;-78
2022/03/13 07:39:32;;;;;;;30.33;16.60;;;;;;;3.63;45.99;95882.88;5020371;28;20438;-77
2022/03/13 07:42:03;;;;;;;30.60;17.43;;;;;;;3.53;46.72;95889.34;5055218;28;20754;-77
2022/03/13 07:44:31;;;;;;;29.83;17.50;;;;;;;3.36;47.09;95886.59;5054645;28;20450;-77
2022/03/13 07:46:58;;;;;;;26.43;17.20;;;;;;;3.26;47.94;95883.53;5054817;28;20421;-77
2022/03/13 07:49:25;;;;;;;30.00;16.77;;;;;;;3.02;47.46;95887.94;5052279;28;20461;-76
2022/03/13 07:51:52;;;;;;;25.63;15.87;;;;;;;2.92;47.94;95878.00;5051927;28;20462;-79
2022/03/13 07:54:20;;;;;;;25.00;18.20;;;;;;;3.30;50.01;95881.66;5047326;28;20453;-78
2022/03/13 07:56:46;;;;;;;24.57;16.20;;;;;;;3.67;49.25;95884.41;5034769;28;21175;-78
2022/03/13 07:59:13;;;;;;;23.70;14.00;;;;;;;3.95;48.62;95875.47;5033728;28;20753;-77
2022/03/13 08:01:42;;;;;;;24.80;14.47;;;;;;;3.84;46.78;95870.75;5033675;28;20442;-78
2022/03/13 08:04:09;;;;;;;33.57;20.47;;;;;;;4.17;47.72;95868.44;5034150;28;20451;-79
2022/03/13 08:06:37;;;;;;;25.93;15.30;;;;;;;4.25;47.59;95866.31;5033653;28;20492;-79
2022/03/13 08:09:05;;;;;;;24.00;15.70;;;;;;;4.32;46.35;95857.34;5054010;28;20477;-79
2022/03/13 08:11:34;;;;;;;21.10;14.23;;;;;;;4.29;44.66;95857.47;5054203;28;20426;-77
2022/03/13 08:14:01;;;;;;;27.83;15.10;;;;;;;4.49;45.87;95847.94;5034469;28;20466;-79
2022/03/13 08:16:28;;;;;;;22.27;15.10;;;;;;;4.70;45.54;95846.97;5034270;28;20435;-76
2022/03/13 08:18:56;;;;;;;21.77;14.37;;;;;;;4.73;45.67;95840.78;5034097;28;20443;-84
2022/03/13 08:21:23;;;;;;;22.93;15.37;;;;;;;4.89;45.45;95836.53;5034072;28;20427;-76
2022/03/13 08:23:50;;;;;;;23.00;14.87;;;;;;;5.02;45.53;95836.81;5034018;28;20461;-77
2022/03/13 08:26:17;;;;;;;18.33;13.63;;;;;;;4.82;43.94;95830.78;5033957;28;20477;-77
2022/03/13 08:35:29;;;;;;;24.47;16.83;;;;;;;4.93;43.97;95835.50;5033963;28;20402;-78
2022/03/13 08:37:57;;;;;;;20.33;14.20;;;;;;;4.97;44.10;95834.44;4999616;28;20462;-83
2022/03/13 08:40:26;;;;;;;23.97;15.37;;;;;;;4.90;47.13;95839.06;5038988;28;20433;-80
2022/03/13 08:42:53;;;;;;;28.47;14.67;;;;;;;4.72;43.36;95829.53;5035359;28;20438;-78
2022/03/13 08:45:20;;;;;;;18.23;12.53;;;;;;;4.38;46.24;95832.84;5053578;28;20469;-81
2022/03/13 08:47:47;;;;;;;23.30;16.30;;;;;;;4.39;47.22;95833.69;5053331;28;20441;-80
2022/03/13 08:53:37;;;;;;;30.43;18.57;;;;;;;3.88;47.73;95837.69;5052649;28;21239;-81
2022/03/13 08:56:04;;;;;;;24.97;15.87;;;;;;;4.03;46.89;95824.03;5034686;28;20441;-78
2022/03/13 08:58:32;;;;;;;29.90;16.33;;;;;;;4.07;45.97;95820.41;5034874;28;20451;-81
2022/03/13 09:01:00;;;;;;;27.57;17.47;;;;;;;4.15;46.78;95820.06;5033694;28;20438;-79
2022/03/13 09:03:28;;;;;;;25.37;18.27;;;;;;;4.17;47.19;95821.66;5033786;28;20458;-81
2022/03/13 09:05:55;;;;;;;28.83;18.27;;;;;;;4.11;46.03;95808.97;5033811;28;20478;-81
2022/03/13 09:08:22;;;;;;;27.00;18.03;;;;;;;4.07;46.24;95810.03;5033609;28;20485;-79
2022/03/13 09:34:22;;;;;;;33.07;18.00;;;;;;;4.63;46.03;95796.19;5039143;28;20967;-79
2022/03/13 09:36:49;;;;;;;31.33;16.17;;;;;;;4.39;44.96;95786.94;5039746;28;20438;-81
2022/03/13 09:39:16;;;;;;;21.77;16.97;;;;;;;4.19;45.77;95790.44;5005507;28;20457;-81
2022/03/13 09:41:43;;;;;;;29.83;16.60;;;;;;;4.07;45.47;95784.06;5021456;28;20980;-82
2022/03/13 09:44:10;;;;;;;26.30;16.23;;;;;;;4.16;45.91;95783.63;5039739;28;20438;-84
2022/03/13 09:46:38;;;;;;;24.90;17.97;;;;;;;4.37;45.00;95787.00;5039778;28;20474;-79
2022/03/13 10:06:00;;;;;;;24.30;17.03;;;;;;;5.33;43.40;95758.94;5038410;28;20473;-78
2022/03/13 10:08:31;;;;;;;26.47;16.87;;;;;;;5.45;43.84;95760.06;5039722;28;20478;-78
2022/03/13 10:10:59;;;;;;;22.73;17.77;;;;;;;5.56;43.18;95745.59;5039257;28;20902;-79
2022/03/13 10:13:37;;;;;;;35.33;18.60;;;;;;;5.70;42.18;95749.25;5039588;28;20438;-78
2022/03/13 10:16:06;;;;;;;31.70;18.83;;;;;;;5.70;42.56;95746.63;5039196;28;20430;-78
2022/03/13 10:18:33;;;;;;;30.57;18.73;;;;;;;5.70;41.98;95736.22;5039500;28;20461;-78
2022/03/13 10:21:10;;;;;;;36.80;19.50;;;;;;;5.54;41.74;95741.41;5039295;28;20438;-80
2022/03/13 10:23:37;;;;;;;28.77;16.60;;;;;;;5.41;42.68;95746.38;5036478;28;20819;-79
2022/03/13 10:26:05;;;;;;;28.97;19.47;;;;;;;5.45;43.11;95731.44;5035927;28;20472;-80
2022/03/13 10:28:33;;;;;;;36.13;18.50;;;;;;;5.41;42.07;95741.16;5035984;28;20501;-80
2022/03/13 10:31:12;;;;;;;32.07;19.70;;;;;;;5.39;42.67;95736.97;5035265;28;20534;-80
2022/03/13 10:33:58;;;;;;;32.33;17.90;;;;;;;5.35;41.83;95738.88;5035348;28;20447;-80
2022/03/13 10:36:34;;;;;;;24.73;16.30;;;;;;;5.12;42.69;95741.78;5035867;28;20443;-80
2022/03/13 10:39:03;;;;;;;20.97;15.43;;;;;;;5.02;44.72;95733.63;5036248;28;20840;-78
2022/03/13 10:41:44;;;;;;;25.60;17.17;;;;;;;5.03;44.32;95711.88;5035784;28;20437;-81
2022/03/13 10:44:18;;;;;;;30.40;18.10;;;;;;;5.12;44.05;95728.78;5035577;28;20457;-81
2022/03/13 10:46:48;;;;;;;32.70;17.30;;;;;;;5.30;43.79;95727.88;5036027;28;20468;-82
2022/03/13 10:49:16;;;;;;;25.33;15.77;;;;;;;5.52;44.50;95722.41;5035611;28;20435;-81
2022/03/13 10:51:47;;;;;;;24.80;15.20;;;;;;;5.63;43.94;95719.25;5035796;28;20932;-81
2022/03/13 10:54:28;;;;;;;32.70;17.97;;;;;;;5.73;43.28;95720.44;5035812;28;20936;-81
2022/03/13 10:57:07;;;;;;;30.13;17.90;;;;;;;5.54;41.79;95716.22;5035747;28;21155;-81
2022/03/13 11:10:07;;;;;;;21.93;13.10;;;;;;;5.13;42.78;95702.69;5017380;28;20434;-79
2022/03/13 11:15:22;;;;;;;33.60;20.10;;;;;;;5.47;43.29;95694.00;5035684;28;20435;-81
2022/03/13 11:17:50;;;;;;;29.73;19.37;;;;;;;5.37;41.29;95695.41;5034968;28;20522;-80
2022/03/13 11:20:19;;;;;;;43.00;22.80;;;;;;;5.43;42.26;95691.63;5048468;28;20878;-80
2022/03/13 11:22:46;;;;;;;40.13;23.70;;;;;;;5.46;41.53;95687.13;5054571;28;20442;-80
2022/03/13 11:25:14;;;;;;;41.60;22.10;;;;;;;5.39;41.01;95687.53;5054715;28;20499;-79
2022/03/13 11:27:42;;;;;;;44.13;22.90;;;;;;;5.30;42.25;95691.44;5034386;28;20478;-80
2022/03/13 11:30:14;;;;;;;35.10;19.50;;;;;;;5.16;40.53;95684.31;5034119;28;20541;-79
2022/03/13 11:42:46;;;;;;;42.07;23.73;;;;;;;5.27;41.79;95676.84;4992103;28;20962;-79
2022/03/13 11:45:31;;;;;;;40.43;22.97;;;;;;;5.31;40.73;95677.50;4992923;28;20434;-79
2022/03/13 11:48:19;;;;;;;36.27;23.30;;;;;;;5.41;41.89;95681.31;4992631;28;20448;-78
2022/03/13 11:50:47;;;;;;;33.70;20.23;;;;;;;5.24;39.92;95677.00;4991068;28;20444;-81
2022/03/13 11:53:18;;;;;;;47.53;27.13;;;;;;;5.23;41.68;95669.25;4991102;28;20444;-81
2022/03/13 11:56:06;;;;;;;51.77;31.40;;;;;;;5.28;41.09;95669.88;4991031;28;20448;-79
2022/03/13 11:58:46;;;;;;;45.50;27.27;;;;;;;5.44;41.52;95665.53;4991138;28;20507;-79
2022/03/13 12:01:15;;;;;;;35.57;22.73;;;;;;;5.44;39.80;95660.31;5029640;28;20497;-79
2022/03/13 12:04:24;;;;;;;33.57;17.30;;;;;;;5.55;38.93;95665.81;5033936;28;20466;-80
2022/03/13 12:06:55;;;;;;;32.40;19.10;;;;;;;5.48;37.10;95648.81;5033995;28;20470;-80
2022/03/13 12:09:28;;;;;;;31.73;18.83;;;;;;;5.65;37.65;95650.56;5034920;28;20439;-79
2022/03/13 12:12:17;;;;;;;44.27;20.50;;;;;;;5.60;38.29;95637.78;5033875;28;21004;-80
2022/03/13 12:14:54;;;;;;;29.50;19.07;;;;;;;5.47;35.88;95644.53;5034534;28;20462;-81
2022/03/13 12:17:25;;;;;;;40.37;22.30;;;;;;;5.50;35.12;95639.22;5034853;28;20439;-79
2022/03/13 12:19:53;;;;;;;42.27;23.57;;;;;;;5.66;35.10;95635.78;5034285;28;20500;-79
2022/03/13 12:22:23;;;;;;;20.60;13.00;;;;;;;5.68;34.02;95644.34;4998998;28;20447;-80
2022/03/13 12:24:51;;;;;;;24.87;14.47;;;;;;;5.71;34.82;95642.41;5033627;28;20457;-82
2022/03/13 12:27:18;;;;;;;29.70;17.30;;;;;;;5.83;35.50;95638.31;5033612;28;20466;-78
2022/03/13 12:29:50;;;;;;;28.27;15.00;;;;;;;5.95;33.60;95640.28;5033878;28;20442;-80
2022/03/13 12:32:18;;;;;;;21.70;14.23;;;;;;;6.06;33.45;95637.06;5033912;28;20492;-78
2022/03/13 12:34:45;;;;;;;19.30;11.70;;;;;;;6.04;30.95;95637.16;5034067;28;20435;-79
2022/03/13 12:37:12;;;;;;;15.37;10.80;;;;;;;6.08;32.38;95617.84;5033600;28;20435;-80
2022/03/13 12:39:59;;;;;;;12.30;9.77;;;;;;;6.36;30.99;95627.56;5034169;28;20438;-80
2022/03/13 12:52:34;;;;;;;12.27;7.23;;;;;;;6.40;27.81;95634.28;5032152;28;20450;-79
2022/03/13 12:55:01;;;;;;;7.87;4.53;;;;;;;6.20;28.26;95630.19;5033249;28;20454;-82
2022/03/13 12:57:29;;;;;;;8.40;5.83;;;;;;;6.08;27.88;95632.66;5033360;28;20438;-79
2022/03/13 12:59:56;;;;;;;7.20;4.80;;;;;;;6.04;27.50;95634.56;4998551;28;20443;-77
2022/03/13 13:02:26;;;;;;;7.57;4.33;;;;;;;5.96;28.88;95631.53;5033036;28;20439;-79
2022/03/13 13:04:55;;;;;;;6.97;5.40;;;;;;;6.04;28.75;95638.91;5033498;28;20446;-78
2022/03/13 13:07:25;;;;;;;9.70;7.40;;;;;;;6.14;29.36;95637.50;5033166;28;20992;-78
2022/03/13 13:09:54;;;;;;;7.30;5.90;;;;;;;6.18;29.72;95634.66;5033573;28;20430;-78
2022/03/13 13:12:27;;;;;;;9.33;5.93;;;;;;;6.25;29.18;95629.94;5033592;28;20847;-79
2022/03/13 13:14:54;;;;;;;4.50;4.10;;;;;;;6.25;28.55;95632.53;5033080;28;20497;-77
2022/03/13 13:17:25;;;;;;;7.93;4.50;;;;;;;6.29;28.74;95627.97;5033449;28;20442;-81
2022/03/13 13:19:54;;;;;;;5.30;4.40;;;;;;;6.38;28.56;95627.50;5033548;28;20512;-79
2022/03/13 13:22:27;;;;;;;5.43;3.80;;;;;;;6.36;28.33;95621.50;5033622;28;20860;-79
2022/03/13 13:24:57;;;;;;;5.47;4.13;;;;;;;6.46;28.25;95625.28;5033099;28;21005;-78
2022/03/13 13:27:31;;;;;;;11.37;8.43;;;;;;;6.55;29.33;95624.75;5033304;28;20505;-78